sensor_id;sensor_type;location;lat;lon;timestamp;pressure;altitude;pressure_sealevel;temperature;humidity
50349;BME280;36250;48.740;22.174;2023-02-16T00:00:44;101938.59;;;0.43;77.36
50349;BME280;36250;48.740;22.174;2023-02-16T00:03:14;101930.41;;;0.45;76.59
50349;BME280;36250;48.740;22.174;2023-02-16T00:05:40;101929.28;;;0.47;77.01
50349;BME280;36250;48.740;22.174;2023-02-16T00:08:06;101929.16;;;0.49;76.95
50349;BME280;36250;48.740;22.174;2023-02-16T00:10:34;101929.16;;;0.49;76.90
50349;BME280;36250;48.740;22.174;2023-02-16T00:13:01;101936.63;;;0.45;76.58
50349;BME280;36250;48.740;22.174;2023-02-16T00:15:45;101934.81;;;0.46;76.98
50349;BME280;36250;48.740;22.174;2023-02-16T00:18:20;101930.41;;;0.45;77.11
50349;BME280;36250;48.740;22.174;2023-02-16T00:20:47;101930.16;;;0.38;76.59
50349;BME280;36250;48.740;22.174;2023-02-16T00:23:13;101931.69;;;0.41;76.49
50349;BME280;36250;48.740;22.174;2023-02-16T00:25:38;101930.44;;;0.35;76.48
50349;BME280;36250;48.740;22.174;2023-02-16T00:28:09;101922.81;;;0.31;76.41
50349;BME280;36250;48.740;22.174;2023-02-16T00:30:37;101932.41;;;0.33;76.60
50349;BME280;36250;48.740;22.174;2023-02-16T00:33:11;101932.69;;;0.30;76.45
50349;BME280;36250;48.740;22.174;2023-02-16T00:35:37;101926.19;;;0.23;76.40
50349;BME280;36250;48.740;22.174;2023-02-16T00:38:03;101918.31;;;0.22;76.63
50349;BME280;36250;48.740;22.174;2023-02-16T00:40:28;101921.13;;;0.20;76.82
50349;BME280;36250;48.740;22.174;2023-02-16T00:42:54;101922.69;;;0.23;76.99
50349;BME280;36250;48.740;22.174;2023-02-16T00:45:20;101928.44;;;0.28;77.06
50349;BME280;36250;48.740;22.174;2023-02-16T00:47:49;101924.66;;;0.30;77.18
50349;BME280;36250;48.740;22.174;2023-02-16T00:50:19;101923.38;;;0.34;77.57
50349;BME280;36250;48.740;22.174;2023-02-16T00:52:47;101923.94;;;0.38;77.11
50349;BME280;36250;48.740;22.174;2023-02-16T00:55:24;101911.13;;;0.41;77.12
50349;BME280;36250;48.740;22.174;2023-02-16T00:57:53;101914.50;;;0.43;77.04
50349;BME280;36250;48.740;22.174;2023-02-16T01:00:43;101913.50;;;0.44;76.92
50349;BME280;36250;48.740;22.174;2023-02-16T01:03:22;101908.28;;;0.43;77.14
50349;BME280;36250;48.740;22.174;2023-02-16T01:05:48;101905.78;;;0.41;76.94
50349;BME280;36250;48.740;22.174;2023-02-16T01:08:15;101906.75;;;0.40;77.03
50349;BME280;36250;48.740;22.174;2023-02-16T01:11:01;101907.59;;;0.41;77.09
50349;BME280;36250;48.740;22.174;2023-02-16T01:13:28;101909.56;;;0.39;77.21
50349;BME280;36250;48.740;22.174;2023-02-16T01:15:55;101912.09;;;0.40;77.09
50349;BME280;36250;48.740;22.174;2023-02-16T01:18:21;101903.09;;;0.41;76.76
50349;BME280;36250;48.740;22.174;2023-02-16T01:20:47;101896.03;;;0.40;76.55
50349;BME280;36250;48.740;22.174;2023-02-16T01:23:12;101900.41;;;0.41;76.16
50349;BME280;36250;48.740;22.174;2023-02-16T01:25:38;101896.31;;;0.37;76.15
50349;BME280;36250;48.740;22.174;2023-02-16T01:28:19;101901.25;;;0.32;75.97
50349;BME280;36250;48.740;22.174;2023-02-16T01:30:45;101894.78;;;0.25;76.43
50349;BME280;36250;48.740;22.174;2023-02-16T01:33:10;101882.50;;;0.23;76.35
50349;BME280;36250;48.740;22.174;2023-02-16T01:35:36;101881.97;;;0.19;76.44
50349;BME280;36250;48.740;22.174;2023-02-16T01:38:02;101882.25;;;0.16;76.11
50349;BME280;36250;48.740;22.174;2023-02-16T01:45:45;101872.94;;;0.11;76.58
50349;BME280;36250;48.740;22.174;2023-02-16T01:48:25;101872.81;;;0.12;76.31
50349;BME280;36250;48.740;22.174;2023-02-16T01:51:14;101861.81;;;0.15;76.25
50349;BME280;36250;48.740;22.174;2023-02-16T01:53:52;101857.28;;;0.16;76.40
50349;BME280;36250;48.740;22.174;2023-02-16T01:56:35;101866.03;;;0.18;76.44
50349;BME280;36250;48.740;22.174;2023-02-16T01:59:12;101861.38;;;0.20;76.74
50349;BME280;36250;48.740;22.174;2023-02-16T02:01:43;101857.44;;;0.24;76.52
50349;BME280;36250;48.740;22.174;2023-02-16T02:04:21;101852.63;;;0.27;76.59
50349;BME280;36250;48.740;22.174;2023-02-16T02:07:11;101858.72;;;0.29;76.80
50349;BME280;36250;48.740;22.174;2023-02-16T02:09:46;101852.06;;;0.33;77.37
50349;BME280;36250;48.740;22.174;2023-02-16T02:12:22;101850.38;;;0.32;76.48
50349;BME280;36250;48.740;22.174;2023-02-16T02:14:51;101847.84;;;0.31;76.57
50349;BME280;36250;48.740;22.174;2023-02-16T02:17:19;101842.50;;;0.31;76.78
50349;BME280;36250;48.740;22.174;2023-02-16T02:20:05;101846.88;;;0.32;76.97
50349;BME280;36250;48.740;22.174;2023-02-16T02:37:19;101845.34;;;0.76;76.23
50349;BME280;36250;48.740;22.174;2023-02-16T02:39:59;101845.00;;;0.79;76.32
50349;BME280;36250;48.740;22.174;2023-02-16T02:42:43;101849.97;;;0.83;76.30
50349;BME280;36250;48.740;22.174;2023-02-16T02:45:34;101842.44;;;0.87;76.05
50349;BME280;36250;48.740;22.174;2023-02-16T02:48:00;101844.69;;;0.91;76.19
50349;BME280;36250;48.740;22.174;2023-02-16T02:53:28;101840.38;;;0.81;76.93
50349;BME280;36250;48.740;22.174;2023-02-16T02:55:54;101842.34;;;0.79;77.00
50349;BME280;36250;48.740;22.174;2023-02-16T02:58:40;101845.88;;;0.79;76.41
50349;BME280;36250;48.740;22.174;2023-02-16T03:01:37;101842.94;;;0.73;76.57
50349;BME280;36250;48.740;22.174;2023-02-16T03:04:06;101837.72;;;0.71;76.95
50349;BME280;36250;48.740;22.174;2023-02-16T03:06:35;101834.22;;;0.71;76.69
50349;BME280;36250;48.740;22.174;2023-02-16T03:09:12;101837.16;;;0.68;77.06
50349;BME280;36250;48.740;22.174;2023-02-16T03:11:38;101840.69;;;0.68;77.23
50349;BME280;36250;48.740;22.174;2023-02-16T03:14:45;101838.31;;;0.65;77.09
50349;BME280;36250;48.740;22.174;2023-02-16T03:17:15;101838.59;;;0.62;77.18
50349;BME280;36250;48.740;22.174;2023-02-16T03:20:02;101843.41;;;0.58;77.16
50349;BME280;36250;48.740;22.174;2023-02-16T03:22:48;101838.47;;;0.54;76.72
50349;BME280;36250;48.740;22.174;2023-02-16T03:25:34;101837.94;;;0.50;77.49
50349;BME280;36250;48.740;22.174;2023-02-16T03:28:21;101836.53;;;0.46;76.84
50349;BME280;36250;48.740;22.174;2023-02-16T03:31:09;101832.44;;;0.42;76.41
50349;BME280;36250;48.740;22.174;2023-02-16T03:33:35;101833.72;;;0.38;76.65
50349;BME280;36250;48.740;22.174;2023-02-16T03:36:02;101829.63;;;0.34;76.78
50349;BME280;36250;48.740;22.174;2023-02-16T03:38:28;101835.00;;;0.34;76.32
50349;BME280;36250;48.740;22.174;2023-02-16T03:40:54;101829.25;;;0.29;76.31
50349;BME280;36250;48.740;22.174;2023-02-16T03:43:23;101831.94;;;0.29;76.57
50349;BME280;36250;48.740;22.174;2023-02-16T03:45:49;101828.25;;;0.30;76.94
50349;BME280;36250;48.740;22.174;2023-02-16T03:48:14;101832.31;;;0.34;76.75
50349;BME280;36250;48.740;22.174;2023-02-16T03:50:40;101825.00;;;0.36;76.65
50349;BME280;36250;48.740;22.174;2023-02-16T03:53:05;101834.72;;;0.37;76.67
50349;BME280;36250;48.740;22.174;2023-02-16T03:55:42;101824.69;;;0.39;76.91
50349;BME280;36250;48.740;22.174;2023-02-16T03:58:10;101825.25;;;0.43;76.79
50349;BME280;36250;48.740;22.174;2023-02-16T04:00:36;101830.88;;;0.49;76.72
50349;BME280;36250;48.740;22.174;2023-02-16T04:03:03;101823.25;;;0.54;76.54
50349;BME280;36250;48.740;22.174;2023-02-16T04:05:28;101821.81;;;0.60;76.79
50349;BME280;36250;48.740;22.174;2023-02-16T04:07:54;101823.78;;;0.68;76.56
50349;BME280;36250;48.740;22.174;2023-02-16T04:10:22;101818.81;;;0.73;76.21
50349;BME280;36250;48.740;22.174;2023-02-16T04:12:48;101816.09;;;0.82;76.75
50349;BME280;36250;48.740;22.174;2023-02-16T04:15:16;101815.06;;;0.93;76.46
50349;BME280;36250;48.740;22.174;2023-02-16T04:17:42;101811.50;;;1.02;75.58
50349;BME280;36250;48.740;22.174;2023-02-16T04:20:11;101806.38;;;1.08;75.79
50349;BME280;36250;48.740;22.174;2023-02-16T04:22:37;101810.13;;;1.15;75.84
50349;BME280;36250;48.740;22.174;2023-02-16T04:25:03;101808.31;;;1.16;75.56
50349;BME280;36250;48.740;22.174;2023-02-16T04:27:28;101806.19;;;1.19;75.79
50349;BME280;36250;48.740;22.174;2023-02-16T04:29:54;101802.34;;;1.22;75.53
50349;BME280;36250;48.740;22.174;2023-02-16T04:32:19;101805.25;;;1.28;75.71
50349;BME280;36250;48.740;22.174;2023-02-16T04:34:44;101802.13;;;1.33;75.40
50349;BME280;36250;48.740;22.174;2023-02-16T04:37:10;101804.81;;;1.33;75.47
50349;BME280;36250;48.740;22.174;2023-02-16T04:39:35;101807.78;;;1.30;75.37
50349;BME280;36250;48.740;22.174;2023-02-16T04:42:01;101809.38;;;1.23;75.76
50349;BME280;36250;48.740;22.174;2023-02-16T04:44:26;101816.84;;;1.29;75.92
50349;BME280;36250;48.740;22.174;2023-02-16T04:46:52;101806.56;;;1.24;76.05
50349;BME280;36250;48.740;22.174;2023-02-16T04:49:17;101806.88;;;1.21;76.23
50349;BME280;36250;48.740;22.174;2023-02-16T04:51:42;101799.28;;;1.17;76.39
50349;BME280;36250;48.740;22.174;2023-02-16T04:54:08;101802.53;;;1.11;76.26
50349;BME280;36250;48.740;22.174;2023-02-16T04:56:33;101804.53;;;1.09;76.76
50349;BME280;36250;48.740;22.174;2023-02-16T04:58:59;101805.13;;;1.03;77.09
50349;BME280;36250;48.740;22.174;2023-02-16T05:01:26;101803.44;;;1.02;76.73
50349;BME280;36250;48.740;22.174;2023-02-16T05:03:52;101799.22;;;0.99;77.12
50349;BME280;36250;48.740;22.174;2023-02-16T05:06:17;101799.53;;;0.96;77.07
50349;BME280;36250;48.740;22.174;2023-02-16T05:08:43;101806.03;;;0.94;76.76
50349;BME280;36250;48.740;22.174;2023-02-16T05:11:09;101803.78;;;0.89;77.29
50349;BME280;36250;48.740;22.174;2023-02-16T05:13:58;101800.53;;;0.86;77.27
50349;BME280;36250;48.740;22.174;2023-02-16T05:16:42;101808.91;;;0.83;77.20
50349;BME280;36250;48.740;22.174;2023-02-16T05:19:08;101805.22;;;0.84;76.93
50349;BME280;36250;48.740;22.174;2023-02-16T05:21:33;101808.06;;;0.82;77.07
50349;BME280;36250;48.740;22.174;2023-02-16T05:24:18;101810.06;;;0.80;77.48
50349;BME280;36250;48.740;22.174;2023-02-16T05:26:43;101805.53;;;0.81;76.92
50349;BME280;36250;48.740;22.174;2023-02-16T05:29:08;101807.09;;;0.83;77.27
50349;BME280;36250;48.740;22.174;2023-02-16T05:31:34;101805.09;;;0.85;77.21
50349;BME280;36250;48.740;22.174;2023-02-16T05:33:59;101807.91;;;0.84;77.25
50349;BME280;36250;48.740;22.174;2023-02-16T05:36:24;101809.59;;;0.85;76.87
50349;BME280;36250;48.740;22.174;2023-02-16T05:38:50;101799.16;;;0.82;77.06
50349;BME280;36250;48.740;22.174;2023-02-16T05:41:15;101805.38;;;0.82;77.64
50349;BME280;36250;48.740;22.174;2023-02-16T05:43:51;101808.91;;;0.83;77.21
50349;BME280;36250;48.740;22.174;2023-02-16T05:46:17;101814.09;;;0.84;77.31
50349;BME280;36250;48.740;22.174;2023-02-16T05:48:43;101806.75;;;0.86;77.19
50349;BME280;36250;48.740;22.174;2023-02-16T05:51:08;101809.16;;;0.89;76.50
50349;BME280;36250;48.740;22.174;2023-02-16T05:53:33;101813.22;;;0.93;76.56
50349;BME280;36250;48.740;22.174;2023-02-16T05:55:59;101814.47;;;0.99;76.57
50349;BME280;36250;48.740;22.174;2023-02-16T05:58:25;101811.50;;;1.02;76.34
50349;BME280;36250;48.740;22.174;2023-02-16T06:00:52;101811.19;;;1.05;76.09
50349;BME280;36250;48.740;22.174;2023-02-16T06:03:17;101823.47;;;1.07;76.47
50349;BME280;36250;48.740;22.174;2023-02-16T06:05:43;101814.69;;;1.05;76.53
50349;BME280;36250;48.740;22.174;2023-02-16T06:08:08;101820.78;;;1.07;76.61
50349;BME280;36250;48.740;22.174;2023-02-16T06:10:33;101822.31;;;1.10;76.38
50349;BME280;36250;48.740;22.174;2023-02-16T06:12:59;101816.50;;;1.14;76.31
50349;BME280;36250;48.740;22.174;2023-02-16T06:15:24;101820.41;;;1.20;76.70
50349;BME280;36250;48.740;22.174;2023-02-16T06:17:49;101820.38;;;1.29;76.19
50349;BME280;36250;48.740;22.174;2023-02-16T06:20:14;101816.91;;;1.37;76.73
50349;BME280;36250;48.740;22.174;2023-02-16T06:22:40;101813.47;;;1.45;76.16
50349;BME280;36250;48.740;22.174;2023-02-16T06:25:05;101808.38;;;1.51;76.53
50349;BME280;36250;48.740;22.174;2023-02-16T06:27:31;101818.16;;;1.60;76.73
50349;BME280;36250;48.740;22.174;2023-02-16T06:29:56;101811.03;;;1.69;76.19
50349;BME280;36250;48.740;22.174;2023-02-16T06:32:21;101817.88;;;1.81;76.27
50349;BME280;36250;48.740;22.174;2023-02-16T06:34:47;101818.94;;;1.88;75.70
50349;BME280;36250;48.740;22.174;2023-02-16T06:37:12;101823.53;;;1.95;75.42
50349;BME280;36250;48.740;22.174;2023-02-16T06:39:37;101815.53;;;2.04;75.28
50349;BME280;36250;48.740;22.174;2023-02-16T06:42:03;101814.63;;;2.13;75.47
50349;BME280;36250;48.740;22.174;2023-02-16T06:44:28;101816.06;;;2.25;75.80
50349;BME280;36250;48.740;22.174;2023-02-16T06:46:53;101814.09;;;2.35;75.38
50349;BME280;36250;48.740;22.174;2023-02-16T06:49:19;101809.09;;;2.40;74.28
50349;BME280;36250;48.740;22.174;2023-02-16T06:51:46;101815.19;;;2.50;74.43
50349;BME280;36250;48.740;22.174;2023-02-16T06:54:12;101812.56;;;2.58;74.35
50349;BME280;36250;48.740;22.174;2023-02-16T06:56:38;101813.44;;;2.66;73.52
50349;BME280;36250;48.740;22.174;2023-02-16T06:59:04;101809.97;;;2.74;73.34
50349;BME280;36250;48.740;22.174;2023-02-16T07:01:29;101805.78;;;2.80;73.64
50349;BME280;36250;48.740;22.174;2023-02-16T07:03:56;101803.66;;;2.83;72.84
50349;BME280;36250;48.740;22.174;2023-02-16T07:06:24;101807.69;;;2.87;72.79
50349;BME280;36250;48.740;22.174;2023-02-16T07:08:50;101810.56;;;2.94;72.76
50349;BME280;36250;48.740;22.174;2023-02-16T07:11:16;101819.84;;;2.99;72.10
50349;BME280;36250;48.740;22.174;2023-02-16T07:13:42;101809.63;;;3.03;72.72
50349;BME280;36250;48.740;22.174;2023-02-16T07:16:07;101805.28;;;3.10;72.02
50349;BME280;36250;48.740;22.174;2023-02-16T07:18:32;101805.28;;;3.10;72.03
50349;BME280;36250;48.740;22.174;2023-02-16T07:20:58;101806.78;;;3.12;72.12
50349;BME280;36250;48.740;22.174;2023-02-16T07:23:24;101797.19;;;3.18;72.00
50349;BME280;36250;48.740;22.174;2023-02-16T07:25:49;101799.44;;;3.22;71.98
50349;BME280;36250;48.740;22.174;2023-02-16T07:28:14;101795.06;;;3.29;71.80
50349;BME280;36250;48.740;22.174;2023-02-16T07:30:40;101794.75;;;3.33;71.31
50349;BME280;36250;48.740;22.174;2023-02-16T07:33:06;101803.50;;;3.43;70.55
50349;BME280;36250;48.740;22.174;2023-02-16T07:35:32;101794.78;;;3.49;71.06
50349;BME280;36250;48.740;22.174;2023-02-16T07:37:58;101791.59;;;3.53;71.32
50349;BME280;36250;48.740;22.174;2023-02-16T07:40:24;101788.38;;;3.58;70.47
50349;BME280;36250;48.740;22.174;2023-02-16T07:42:49;101790.25;;;3.65;70.42
50349;BME280;36250;48.740;22.174;2023-02-16T07:45:15;101787.72;;;3.72;70.53
50349;BME280;36250;48.740;22.174;2023-02-16T07:47:40;101785.72;;;3.82;70.95
50349;BME280;36250;48.740;22.174;2023-02-16T07:50:06;101783.88;;;3.90;70.37
50349;BME280;36250;48.740;22.174;2023-02-16T07:52:33;101769.38;;;3.91;69.66
50349;BME280;36250;48.740;22.174;2023-02-16T07:54:58;101783.72;;;4.00;70.05
50349;BME280;36250;48.740;22.174;2023-02-16T07:57:25;101777.16;;;4.03;69.58
50349;BME280;36250;48.740;22.174;2023-02-16T07:59:52;101772.94;;;4.08;70.19
50349;BME280;36250;48.740;22.174;2023-02-16T08:02:18;101784.72;;;4.15;69.15
50349;BME280;36250;48.740;22.174;2023-02-16T08:04:45;101779.16;;;4.17;69.15
50349;BME280;36250;48.740;22.174;2023-02-16T08:07:12;101774.28;;;4.20;68.44
50349;BME280;36250;48.740;22.174;2023-02-16T08:09:38;101780.00;;;4.25;69.05
50349;BME280;36250;48.740;22.174;2023-02-16T08:12:03;101777.13;;;4.27;69.30
50349;BME280;36250;48.740;22.174;2023-02-16T08:14:29;101776.28;;;4.26;68.65
50349;BME280;36250;48.740;22.174;2023-02-16T08:16:54;101770.53;;;4.29;68.56
50349;BME280;36250;48.740;22.174;2023-02-16T08:19:19;101769.19;;;4.33;68.65
50349;BME280;36250;48.740;22.174;2023-02-16T08:21:45;101769.03;;;4.35;68.77
50349;BME280;36250;48.740;22.174;2023-02-16T08:24:13;101761.75;;;4.35;69.02
50349;BME280;36250;48.740;22.174;2023-02-16T08:26:41;101763.44;;;4.36;68.28
50349;BME280;36250;48.740;22.174;2023-02-16T08:29:08;101771.72;;;4.35;67.86
50349;BME280;36250;48.740;22.174;2023-02-16T08:31:35;101762.59;;;4.36;69.02
50349;BME280;36250;48.740;22.174;2023-02-16T08:34:03;101764.31;;;4.37;68.21
50349;BME280;36250;48.740;22.174;2023-02-16T08:36:32;101770.16;;;4.40;68.13
50349;BME280;36250;48.740;22.174;2023-02-16T08:39:00;101771.19;;;4.47;68.49
50349;BME280;36250;48.740;22.174;2023-02-16T08:41:34;101771.19;;;4.47;68.10
50349;BME280;36250;48.740;22.174;2023-02-16T08:44:00;101771.66;;;4.51;68.44
50349;BME280;36250;48.740;22.174;2023-02-16T08:46:27;101770.50;;;4.53;67.94
50349;BME280;36250;48.740;22.174;2023-02-16T08:48:57;101770.50;;;4.53;68.62
50349;BME280;36250;48.740;22.174;2023-02-16T08:51:25;101765.44;;;4.50;68.30
50349;BME280;36250;48.740;22.174;2023-02-16T08:53:52;101770.50;;;4.53;68.07
50349;BME280;36250;48.740;22.174;2023-02-16T08:56:18;101780.94;;;4.56;67.63
50349;BME280;36250;48.740;22.174;2023-02-16T08:58:44;101777.72;;;4.53;67.73
50349;BME280;36250;48.740;22.174;2023-02-16T09:01:09;101778.25;;;4.48;67.31
50349;BME280;36250;48.740;22.174;2023-02-16T09:03:36;101777.59;;;4.46;67.85
50349;BME280;36250;48.740;22.174;2023-02-16T09:06:04;101783.31;;;4.51;67.60
50349;BME280;36250;48.740;22.174;2023-02-16T09:08:30;101772.53;;;4.51;67.68
50349;BME280;36250;48.740;22.174;2023-02-16T09:11:01;101777.91;;;4.51;67.80
50349;BME280;36250;48.740;22.174;2023-02-16T09:13:26;101777.56;;;4.54;67.60
50349;BME280;36250;48.740;22.174;2023-02-16T09:15:52;101778.41;;;4.55;67.79
50349;BME280;36250;48.740;22.174;2023-02-16T09:18:17;101781.09;;;4.55;67.41
50349;BME280;36250;48.740;22.174;2023-02-16T09:20:44;101777.22;;;4.57;67.81
50349;BME280;36250;48.740;22.174;2023-02-16T09:23:10;101771.13;;;4.63;67.49
50349;BME280;36250;48.740;22.174;2023-02-16T09:25:37;101778.88;;;4.67;66.52
50349;BME280;36250;48.740;22.174;2023-02-16T09:28:04;101781.22;;;4.70;67.61
50349;BME280;36250;48.740;22.174;2023-02-16T09:30:31;101776.50;;;4.72;67.73
50349;BME280;36250;48.740;22.174;2023-02-16T09:32:57;101779.53;;;4.77;67.22
50349;BME280;36250;48.740;22.174;2023-02-16T09:35:23;101772.94;;;4.79;67.54
50349;BME280;36250;48.740;22.174;2023-02-16T09:37:49;101778.81;;;4.83;67.10
50349;BME280;36250;48.740;22.174;2023-02-16T09:40:15;101780.16;;;4.87;67.00
50349;BME280;36250;48.740;22.174;2023-02-16T09:45:18;101766.28;;;4.98;66.63
50349;BME280;36250;48.740;22.174;2023-02-16T09:47:46;101768.78;;;4.99;67.36
50349;BME280;36250;48.740;22.174;2023-02-16T09:50:22;101765.75;;;5.02;66.31
50349;BME280;36250;48.740;22.174;2023-02-16T09:55:20;101762.88;;;5.04;67.22
50349;BME280;36250;48.740;22.174;2023-02-16T10:00:24;101769.63;;;5.08;66.44
50349;BME280;36250;48.740;22.174;2023-02-16T10:02:56;101765.88;;;5.09;66.09
50349;BME280;36250;48.740;22.174;2023-02-16T10:10:22;101763.19;;;5.09;65.69
50349;BME280;36250;48.740;22.174;2023-02-16T10:12:58;101764.34;;;5.14;65.99
50349;BME280;36250;48.740;22.174;2023-02-16T10:15:28;101758.78;;;5.16;65.88
50349;BME280;36250;48.740;22.174;2023-02-16T10:18:02;101758.09;;;5.14;65.64
50349;BME280;36250;48.740;22.174;2023-02-16T10:20:38;101756.44;;;5.13;65.84
50349;BME280;36250;48.740;22.174;2023-02-16T10:26:15;101757.75;;;5.17;66.36
50349;BME280;36250;48.740;22.174;2023-02-16T10:28:57;101748.00;;;5.16;65.26
50349;BME280;36250;48.740;22.174;2023-02-16T10:31:40;101743.25;;;5.18;65.91
50349;BME280;36250;48.740;22.174;2023-02-16T10:44:58;101746.03;;;5.32;66.12
50349;BME280;36250;48.740;22.174;2023-02-16T10:47:34;101744.44;;;5.38;66.09
50349;BME280;36250;48.740;22.174;2023-02-16T10:50:01;101733.59;;;5.46;65.91
50349;BME280;36250;48.740;22.174;2023-02-16T10:52:32;101722.66;;;5.48;65.49
50349;BME280;36250;48.740;22.174;2023-02-16T10:55:00;101727.50;;;5.52;65.56
50349;BME280;36250;48.740;22.174;2023-02-16T10:57:29;101724.56;;;5.62;65.94
50349;BME280;36250;48.740;22.174;2023-02-16T10:59:56;101725.16;;;5.72;65.46
50349;BME280;36250;48.740;22.174;2023-02-16T11:02:34;101719.38;;;5.75;64.04
50349;BME280;36250;48.740;22.174;2023-02-16T11:05:01;101722.84;;;5.83;63.45
50349;BME280;36250;48.740;22.174;2023-02-16T11:07:29;101719.63;;;5.88;63.51
50349;BME280;36250;48.740;22.174;2023-02-16T11:09:57;101727.19;;;5.92;63.18
50349;BME280;36250;48.740;22.174;2023-02-16T11:12:37;101716.56;;;5.91;62.75
50349;BME280;36250;48.740;22.174;2023-02-16T11:15:07;101714.03;;;5.89;62.54
50349;BME280;36250;48.740;22.174;2023-02-16T11:18:04;101708.91;;;5.94;62.91
50349;BME280;36250;48.740;22.174;2023-02-16T11:25:38;101698.09;;;5.94;62.79
50349;BME280;36250;48.740;22.174;2023-02-16T11:28:04;101696.44;;;5.93;62.82
50349;BME280;36250;48.740;22.174;2023-02-16T11:30:35;101691.69;;;5.95;62.79
50349;BME280;36250;48.740;22.174;2023-02-16T11:33:16;101686.22;;;6.04;62.93
50349;BME280;36250;48.740;22.174;2023-02-16T11:35:43;101683.81;;;6.09;62.75
50349;BME280;36250;48.740;22.174;2023-02-16T11:40:52;101680.63;;;6.20;62.49
50349;BME280;36250;48.740;22.174;2023-02-16T11:43:19;101672.44;;;6.28;62.26
50349;BME280;36250;48.740;22.174;2023-02-16T11:45:56;101672.44;;;6.42;62.58
50349;BME280;36250;48.740;22.174;2023-02-16T11:48:28;101663.84;;;6.53;62.17
50349;BME280;36250;48.740;22.174;2023-02-16T11:51:06;101666.66;;;6.60;61.37
50349;BME280;36250;48.740;22.174;2023-02-16T11:53:35;101662.25;;;6.59;61.33
50349;BME280;36250;48.740;22.174;2023-02-16T11:58:44;101655.25;;;6.65;61.59
50349;BME280;36250;48.740;22.174;2023-02-16T12:04:16;101655.91;;;6.67;61.51
50349;BME280;36250;48.740;22.174;2023-02-16T12:07:13;101655.25;;;6.65;61.28
50349;BME280;36250;48.740;22.174;2023-02-16T12:15:19;101646.50;;;6.48;62.04
50349;BME280;36250;48.740;22.174;2023-02-16T12:24:00;101631.38;;;6.39;62.32
50349;BME280;36250;48.740;22.174;2023-02-16T12:35:18;101625.25;;;6.45;62.77
50349;BME280;36250;48.740;22.174;2023-02-16T12:43:41;101618.00;;;6.31;63.11
50349;BME280;36250;48.740;22.174;2023-02-16T12:46:47;101617.31;;;6.29;63.33
50349;BME280;36250;48.740;22.174;2023-02-16T12:51:46;101617.50;;;6.27;63.50
50349;BME280;36250;48.740;22.174;2023-02-16T12:54:17;101611.63;;;6.24;63.60
50349;BME280;36250;48.740;22.174;2023-02-16T12:56:46;101611.25;;;6.27;63.57
50349;BME280;36250;48.740;22.174;2023-02-16T12:59:21;101608.84;;;6.32;63.08
50349;BME280;36250;48.740;22.174;2023-02-16T13:01:51;101596.72;;;6.28;63.58
50349;BME280;36250;48.740;22.174;2023-02-16T13:04:39;101595.97;;;6.19;63.42
50349;BME280;36250;48.740;22.174;2023-02-16T13:07:17;101596.19;;;6.18;63.85
50349;BME280;36250;48.740;22.174;2023-02-16T13:15:12;101577.25;;;6.18;63.61
50349;BME280;36250;48.740;22.174;2023-02-16T13:17:42;101573.25;;;6.14;64.37
50349;BME280;36250;48.740;22.174;2023-02-16T13:20:17;101568.28;;;6.17;64.06
50349;BME280;36250;48.740;22.174;2023-02-16T13:23:30;101564.38;;;6.20;63.97
50349;BME280;36250;48.740;22.174;2023-02-16T13:34:07;101568.28;;;6.17;64.70
50349;BME280;36250;48.740;22.174;2023-02-16T13:44:54;101560.38;;;6.16;65.16
50349;BME280;36250;48.740;22.174;2023-02-16T13:47:29;101560.38;;;6.16;65.29
50349;BME280;36250;48.740;22.174;2023-02-16T13:49:58;101553.75;;;6.18;65.07
50349;BME280;36250;48.740;22.174;2023-02-16T13:52:36;101561.03;;;6.18;65.39
50349;BME280;36250;48.740;22.174;2023-02-16T14:00:41;101558.50;;;6.16;65.66
50349;BME280;36250;48.740;22.174;2023-02-16T14:05:49;101546.22;;;6.14;65.01
50349;BME280;36250;48.740;22.174;2023-02-16T14:16:34;101543.25;;;6.09;65.40
50349;BME280;36250;48.740;22.174;2023-02-16T14:19:03;101553.84;;;6.10;65.64
50349;BME280;36250;48.740;22.174;2023-02-16T14:21:38;101553.66;;;6.12;65.51
50349;BME280;36250;48.740;22.174;2023-02-16T14:24:09;101556.09;;;6.07;66.04
50349;BME280;36250;48.740;22.174;2023-02-16T14:26:58;101559.84;;;6.06;65.71
50349;BME280;36250;48.740;22.174;2023-02-16T14:29:30;101549.19;;;6.04;66.05
50349;BME280;36250;48.740;22.174;2023-02-16T14:31:58;101553.59;;;6.05;66.76
50349;BME280;36250;48.740;22.174;2023-02-16T14:34:28;101555.44;;;6.05;66.67
50349;BME280;36250;48.740;22.174;2023-02-16T14:37:10;101545.47;;;6.05;66.62
50349;BME280;36250;48.740;22.174;2023-02-16T14:39:47;101543.97;;;6.03;66.46
50349;BME280;36250;48.740;22.174;2023-02-16T14:42:28;101541.47;;;6.01;67.53
50349;BME280;36250;48.740;22.174;2023-02-16T14:48:14;101530.19;;;5.97;66.33
50349;BME280;36250;48.740;22.174;2023-02-16T14:56:33;101534.31;;;5.93;65.73
50349;BME280;36250;48.740;22.174;2023-02-16T15:01:48;101538.88;;;5.93;65.83
50349;BME280;36250;48.740;22.174;2023-02-16T15:04:29;101536.53;;;5.90;65.87
50349;BME280;36250;48.740;22.174;2023-02-16T15:06:55;101532.53;;;5.86;66.50
50349;BME280;36250;48.740;22.174;2023-02-16T15:09:31;101532.22;;;5.81;65.73
50349;BME280;36250;48.740;22.174;2023-02-16T15:12:02;101527.28;;;5.70;67.08
50349;BME280;36250;48.740;22.174;2023-02-16T15:15:00;101530.81;;;5.56;67.51
50349;BME280;36250;48.740;22.174;2023-02-16T15:17:39;101524.69;;;5.47;67.64
50349;BME280;36250;48.740;22.174;2023-02-16T15:25:30;101521.75;;;5.34;69.44
50349;BME280;36250;48.740;22.174;2023-02-16T15:28:19;101513.84;;;5.32;68.88
50349;BME280;36250;48.740;22.174;2023-02-16T15:30:52;101507.63;;;5.32;68.79
50349;BME280;36250;48.740;22.174;2023-02-16T15:35:58;101507.69;;;5.24;69.50